Portao, Brazil
Current Conditions -  °F | °C
As of 6:00 PM on Saturday 20 Dec 2014 (Local Time) from SBCO Reporting Station
Few Clouds Few Clouds  
Wind Chill: 90°   Ceiling: Unl
Heat Index: 96°   Visibility: 6mi
Dew Point: 72°   Wind: 21mph
Humidity: 55%   Direction: 130°SE
Pressure: 29.5"   Gusts: NA
Location:  29.7°S, 51.24°W
Report Text: SBCO 202000Z 13018KT 9999 FEW040 32/22 Q0999
Loading
Personal Weather Stations






























Interactive Weather Map New forecast layout! Learn more

10-Day Weather Forecast

Advertisements
Track Severe Weather on mobile